Potomac — WBF7534 — position and weather

sailwx.info

Track history (hours):
 
Tides and Currents Weather Stations Pressure Air Temp Water Temp Dewpoint Dewpoint Depression Visibility Wind Speed Wind Dir Waves Ship Positions

Potomac

Owner: POTOMAC ASSOCIATION, OAKLAND, CA. More information available from US FCC via Universal Licensing System and Coast Guard Vessel Documentation Center.

Last reported at 2016-Jun-30 20:32 UTC. Time now 2016-Jul-02 02:13 UTC.
Position N 37°48' W 122°17'.

Length 51 m; draft 3.1 m.

MMSI: 367166810.

Date/timePositionNaut miles runAvg speedWind from/ knotsBaromVisibWave heightAir tempDewpointWater temp
2016-Jun-30 20:32N 37°48' W 122°17'8 8.4
2016-Jun-30 19:33N 37°51' W 122°26'4 3.2
2016-Jun-30 18:20N 37°50' W 122°22'4 5.6
2016-Jun-30 17:33N 37°48' W 122°17'0 0.0
2016-Jun-30 16:33N 37°48' W 122°17'  
2016-Jun-26 00:33N 37°48' W 122°17'7 6.6
2016-Jun-25 23:33N 37°49' W 122°25'3 3.0
2016-Jun-25 22:32N 37°52' W 122°25'7 7.6
2016-Jun-25 21:33N 37°48' W 122°17'0 0.0
2016-Jun-25 04:16N 37°48' W 122°17'5 7.8
2016-Jun-25 03:33N 37°48' W 122°24'3 3.3
2016-Jun-25 02:33N 37°48' W 122°20'2 2.2
2016-Jun-25 01:33N 37°48' W 122°17'  
Track history (hours):
 
Tides and Currents Weather Stations Pressure Air Temp Water Temp Dewpoint Dewpoint Depression Visibility Wind Speed Wind Dir Waves Ship Positions

Potomac

Owner: POTOMAC ASSOCIATION, OAKLAND, CA. More information available from US FCC via Universal Licensing System and Coast Guard Vessel Documentation Center.

Last reported at 2016-Jun-30 20:32 UTC. Time now 2016-Jul-02 02:13 UTC.
Position N 37°48' W 122°17'.

Length 51 m; draft 3.1 m.

MMSI: 367166810.

Date/timePositionNaut miles runAvg speedWind from/ knotsBaromVisibWave heightAir tempDewpointWater temp
2016-Jun-30 20:32N 37°48' W 122°17'8 8.4
2016-Jun-30 19:33N 37°51' W 122°26'4 3.2
2016-Jun-30 18:20N 37°50' W 122°22'4 5.6
2016-Jun-30 17:33N 37°48' W 122°17'0 0.0
2016-Jun-30 16:33N 37°48' W 122°17'  
2016-Jun-26 00:33N 37°48' W 122°17'7 6.6
2016-Jun-25 23:33N 37°49' W 122°25'3 3.0
2016-Jun-25 22:32N 37°52' W 122°25'7 7.6
2016-Jun-25 21:33N 37°48' W 122°17'0 0.0
2016-Jun-25 04:16N 37°48' W 122°17'5 7.8
2016-Jun-25 03:33N 37°48' W 122°24'3 3.3
2016-Jun-25 02:33N 37°48' W 122°20'2 2.2
2016-Jun-25 01:33N 37°48' W 122°17'  

Dump ship's entire track history